Time;durP1;ratioP1;P1;durP2;ratioP2;P2;SDS_P1;SDS_P2;PMS_P1;PMS_P2;Temp;Humidity;BMP_temperature;BMP_pressure;BME280_temperature;BME280_humidity;BME280_pressure;Samples;Min_cycle;Max_cycle;Signal;HPM_P1;HPM_P2
2022/06/21 00:01:48;;;;;;;3.17;1.30;;;;;;;18.04;69.12;99924.34;5050315;28;20115;-67
2022/06/21 00:04:13;;;;;;;2.97;1.55;;;;;;;18.05;69.68;99931.50;5050661;28;20437;-67
2022/06/21 00:06:38;;;;;;;1.73;1.25;;;;;;;18.04;69.46;99935.13;5050461;28;20090;-67
2022/06/21 00:09:04;;;;;;;2.83;1.20;;;;;;;18.02;69.38;99930.81;5050327;28;20029;-67
2022/06/21 00:11:32;;;;;;;2.95;1.50;;;;;;;17.95;70.00;99935.72;5048749;28;20110;-66
2022/06/21 00:13:58;;;;;;;2.00;1.50;;;;;;;17.96;70.02;99937.44;5053795;28;20163;-67
2022/06/21 00:16:26;;;;;;;2.28;1.40;;;;;;;17.94;69.97;99950.13;5044250;28;20104;-67
2022/06/21 00:18:52;;;;;;;3.60;1.60;;;;;;;17.98;70.14;99940.03;5032019;28;20025;-67
2022/06/21 00:21:23;;;;;;;3.08;1.30;;;;;;;17.98;70.83;99940.03;5032007;28;20057;-67
2022/06/21 00:23:51;;;;;;;2.95;1.55;;;;;;;18.01;70.11;99951.47;5038096;28;20074;-67
2022/06/21 00:26:20;;;;;;;2.42;1.13;;;;;;;18.04;69.63;99945.88;5034121;28;20025;-67
2022/06/21 00:28:45;;;;;;;2.97;1.35;;;;;;;18.01;70.76;99943.41;5071858;28;20028;-67
2022/06/21 00:31:18;;;;;;;3.50;1.48;;;;;;;18.04;70.48;99945.88;5072001;28;20124;-67
2022/06/21 00:33:43;;;;;;;1.75;1.33;;;;;;;18.07;70.10;99940.31;5073442;28;20565;-67
2022/06/21 00:36:23;;;;;;;2.58;1.10;;;;;;;18.06;70.43;99943.97;5073907;28;20099;-67
2022/06/21 00:38:50;;;;;;;3.97;1.52;;;;;;;18.06;70.49;99937.72;5073296;28;20028;-67
2022/06/21 00:41:20;;;;;;;2.95;1.50;;;;;;;18.03;70.88;99938.78;5073640;28;20476;-67
2022/06/21 00:43:52;;;;;;;3.28;1.42;;;;;;;18.01;71.57;99929.94;5073491;28;20033;-67
2022/06/21 00:46:30;;;;;;;3.67;1.20;;;;;;;17.99;72.27;99925.63;5073824;28;20368;-67
2022/06/21 00:48:56;;;;;;;2.40;1.27;;;;;;;18.02;72.41;99920.88;5072226;28;20028;-67
2022/06/21 00:51:38;;;;;;;2.03;1.17;;;;;;;17.96;71.93;99910.53;5051956;28;20037;-67
2022/06/21 00:54:25;;;;;;;1.73;0.90;;;;;;;18.06;71.54;99911.66;5045467;28;20470;-67
2022/06/21 00:56:57;;;;;;;2.17;1.30;;;;;;;18.09;71.75;99918.66;5032405;28;20469;-67
2022/06/21 00:59:29;;;;;;;1.77;1.10;;;;;;;18.10;71.18;99904.25;5031687;28;20409;-67
2022/06/21 01:01:59;;;;;;;1.23;1.10;;;;;;;18.10;71.52;99901.56;5032433;28;20036;-66
2022/06/21 01:07:01;;;;;;;2.70;1.10;;;;;;;18.03;71.35;99895.72;5012432;28;20092;-82
2022/06/21 01:09:38;;;;;;;1.60;1.05;;;;;;;17.84;72.10;99862.88;4998620;28;20036;-83
2022/06/21 01:12:12;;;;;;;3.72;1.40;;;;;;;17.98;72.01;99889.78;5011388;28;20045;-83
2022/06/21 01:14:46;;;;;;;1.42;1.20;;;;;;;17.92;72.61;99884.75;5015466;28;20028;-82
2022/06/21 01:17:12;;;;;;;4.90;1.30;;;;;;;17.93;72.38;99873.06;5016441;28;20029;-82
2022/06/21 01:19:47;;;;;;;6.35;1.20;;;;;;;17.90;72.27;99859.81;5016817;28;20518;-83
2022/06/21 01:22:24;;;;;;;4.10;1.35;;;;;;;17.85;72.61;99856.53;5015425;28;20551;-82
2022/06/21 01:25:12;;;;;;;3.72;1.27;;;;;;;17.83;72.80;99850.41;5015662;28;20506;-81
2022/06/21 01:27:39;;;;;;;2.17;1.10;;;;;;;17.72;71.40;99817.06;5029808;28;20514;-82
2022/06/21 01:30:06;;;;;;;1.20;0.90;;;;;;;17.80;72.11;99839.84;5035297;28;20065;-82
2022/06/21 01:32:32;;;;;;;2.90;1.23;;;;;;;17.62;72.20;99830.25;5015122;28;20419;-81
2022/06/21 01:34:58;;;;;;;2.60;1.10;;;;;;;17.72;71.86;99852.94;5014879;28;20541;-81
2022/06/21 01:37:30;;;;;;;1.75;1.15;;;;;;;17.63;72.29;99837.34;5031806;28;20033;-81
2022/06/21 01:40:06;;;;;;;3.28;1.17;;;;;;;17.70;72.03;99849.47;5031684;28;20472;-81
2022/06/21 01:42:40;;;;;;;2.25;1.00;;;;;;;17.64;72.27;99831.03;5004896;28;20071;-81
2022/06/21 01:45:11;;;;;;;1.42;0.93;;;;;;;17.66;72.31;99821.00;4993490;28;20120;-81
2022/06/21 01:47:46;;;;;;;2.85;1.23;;;;;;;17.76;72.45;99837.44;5010955;28;20018;-82
2022/06/21 01:50:11;;;;;;;1.40;1.30;;;;;;;17.71;71.63;99824.28;5011105;28;20104;-82
2022/06/21 01:52:42;;;;;;;1.52;0.98;;;;;;;17.72;72.19;99830.53;5011629;28;20121;-82
2022/06/21 01:55:32;;;;;;;2.00;1.02;;;;;;;17.71;72.47;99828.81;5012561;28;20026;-83
2022/06/21 01:58:00;;;;;;;2.55;1.08;;;;;;;17.62;72.58;99816.81;4978716;28;20026;-82
2022/06/21 02:00:26;;;;;;;2.25;1.33;;;;;;;17.69;73.32;99822.66;5010814;28;20389;-82
2022/06/21 02:02:59;;;;;;;2.15;1.15;;;;;;;17.63;73.29;99826.59;4993284;28;20084;-84
2022/06/21 02:05:49;;;;;;;3.60;1.20;;;;;;;17.71;74.25;99824.28;5010532;28;20539;-83
2022/06/21 02:08:18;;;;;;;2.53;1.50;;;;;;;17.68;74.62;99816.41;4993006;28;20048;-83
2022/06/21 02:10:55;;;;;;;2.05;1.27;;;;;;;17.79;74.83;99824.63;5011278;28;20033;-83
2022/06/21 02:13:33;;;;;;;2.95;1.23;;;;;;;17.52;75.08;99791.47;5012514;28;20030;-83
2022/06/21 02:16:10;;;;;;;2.63;1.45;;;;;;;17.67;75.77;99821.88;4994780;28;20033;-83
2022/06/21 02:18:41;;;;;;;2.97;1.30;;;;;;;17.70;75.64;99838.69;5011490;28;20029;-82
2022/06/21 02:21:20;;;;;;;5.65;1.60;;;;;;;17.68;76.19;99832.53;4994495;28;20041;-83
2022/06/21 02:23:52;;;;;;;4.05;1.80;;;;;;;17.56;75.56;99830.63;5012283;28;20030;-83
2022/06/21 02:26:20;;;;;;;2.35;1.35;;;;;;;17.60;75.21;99826.81;5013378;28;20029;-82
2022/06/21 02:28:46;;;;;;;2.20;1.30;;;;;;;17.41;76.26;99788.56;5013748;28;20112;-83
2022/06/21 02:31:12;;;;;;;1.85;1.20;;;;;;;17.59;76.12;99818.81;4994328;28;20319;-82
2022/06/21 02:33:38;;;;;;;2.75;1.50;;;;;;;17.45;76.13;99806.25;5012178;28;20448;-84
2022/06/21 02:36:29;;;;;;;2.30;1.52;;;;;;;17.46;76.34;99813.34;4993644;28;20029;-82
2022/06/21 02:39:02;;;;;;;4.20;1.58;;;;;;;17.37;76.67;99807.66;4985618;28;20060;-83
2022/06/21 02:41:42;;;;;;;3.55;1.63;;;;;;;17.30;76.16;99791.06;4994246;28;20034;-82
2022/06/21 02:44:17;;;;;;;2.42;1.20;;;;;;;17.31;76.14;99791.94;4992571;28;20037;-82
2022/06/21 02:46:48;;;;;;;2.22;1.30;;;;;;;17.27;76.88;99779.63;4974818;28;20037;-83
2022/06/21 02:49:36;;;;;;;1.77;1.30;;;;;;;17.26;77.11;99786.84;4975010;28;20065;-83
2022/06/21 02:52:18;;;;;;;3.33;1.60;;;;;;;17.27;77.13;99780.50;4974412;28;20038;-83
2022/06/21 02:54:54;;;;;;;3.47;1.35;;;;;;;17.34;76.93;99798.00;4993793;28;20033;-83
2022/06/21 02:57:36;;;;;;;2.95;1.00;;;;;;;17.29;76.33;99788.47;5011711;28;20052;-82
2022/06/21 03:00:06;;;;;;;4.53;1.50;;;;;;;17.33;76.89;99798.09;4993969;28;20064;-83
2022/06/21 03:02:32;;;;;;;3.75;1.27;;;;;;;17.29;77.10;99800.09;4993953;28;20487;-83
2022/06/21 03:05:05;;;;;;;1.52;1.20;;;;;;;17.18;76.95;99778.41;4990309;28;20456;-82
2022/06/21 03:07:39;;;;;;;3.40;1.20;;;;;;;17.23;76.09;99778.13;4989851;28;20022;-82
2022/06/21 03:10:07;;;;;;;1.60;1.08;;;;;;;17.32;76.27;99781.09;4989699;28;20088;-82
2022/06/21 03:12:34;;;;;;;3.60;1.00;;;;;;;17.40;75.73;99781.44;4987542;28;20030;-83
2022/06/21 03:15:08;;;;;;;2.10;1.10;;;;;;;17.24;76.06;99756.53;4987466;28;20188;-82
2022/06/21 03:17:47;;;;;;;1.65;1.15;;;;;;;17.34;75.64;99764.84;4986760;28;20027;-82
2022/06/21 03:20:16;;;;;;;2.53;1.23;;;;;;;17.34;76.87;99749.59;4988472;28;20030;-83
2022/06/21 03:22:43;;;;;;;4.45;1.75;;;;;;;17.37;76.41;99749.38;4989672;28;20031;-83
2022/06/21 03:25:37;;;;;;;3.85;1.48;;;;;;;17.23;76.58;99733.28;4991918;28;20110;-82
2022/06/21 03:28:03;;;;;;;3.25;1.40;;;;;;;17.26;76.14;99719.66;5006994;28;20037;-82
2022/06/21 03:30:31;;;;;;;3.42;1.40;;;;;;;17.40;76.91;99746.50;5009810;28;20528;-81
2022/06/21 03:32:58;;;;;;;3.30;1.67;;;;;;;17.27;77.00;99725.88;5011376;28;20026;-83
2022/06/21 03:35:26;;;;;;;2.72;1.75;;;;;;;17.30;76.97;99737.28;5009774;28;20041;-82
2022/06/21 03:37:52;;;;;;;2.45;1.08;;;;;;;17.30;77.27;99733.75;5011319;28;20507;-81
2022/06/21 03:43:31;;;;;;;2.75;1.30;;;;;;;17.33;76.80;99725.50;4999635;28;20037;-83
2022/06/21 03:46:01;;;;;;;4.05;1.35;;;;;;;17.36;76.53;99739.59;4991731;28;20026;-82
2022/06/21 03:48:37;;;;;;;2.17;1.20;;;;;;;17.47;76.65;99744.31;4995536;28;20030;-83
2022/06/21 03:51:19;;;;;;;3.00;1.30;;;;;;;17.59;76.55;99755.16;4995453;28;20030;-83
2022/06/21 03:54:00;;;;;;;2.17;1.15;;;;;;;17.52;76.39;99726.03;4995699;28;20026;-83
2022/06/21 03:57:11;;;;;;;3.55;1.20;;;;;;;17.73;77.49;99744.34;4994345;28;20033;-83
2022/06/21 03:59:43;;;;;;;3.88;1.30;;;;;;;17.81;76.68;99742.00;4980736;28;20522;-82
2022/06/21 04:02:23;;;;;;;1.92;1.17;;;;;;;17.84;75.99;99743.63;4975251;28;20038;-82
2022/06/21 04:05:13;;;;;;;3.38;1.35;;;;;;;17.83;75.68;99731.13;4976474;28;20055;-83
2022/06/21 04:07:44;;;;;;;3.22;1.20;;;;;;;17.80;75.58;99726.81;4976843;28;20044;-83
2022/06/21 04:10:24;;;;;;;1.83;1.10;;;;;;;17.97;75.53;99742.69;4994455;28;20541;-82
2022/06/21 04:13:00;;;;;;;1.73;1.10;;;;;;;17.95;75.40;99735.69;4986507;28;20400;-84
2022/06/21 04:15:52;;;;;;;3.75;1.33;;;;;;;17.83;74.33;99705.09;4996214;28;20560;-83
2022/06/21 04:18:30;;;;;;;1.67;1.10;;;;;;;18.03;74.75;99736.91;5015217;28;20037;-83
2022/06/21 04:21:04;;;;;;;2.35;0.95;;;;;;;18.11;75.35;99736.38;4997669;28;20084;-84
2022/06/21 04:23:41;;;;;;;3.42;1.08;;;;;;;18.12;74.82;99725.50;5014517;28;20076;-83
2022/06/21 04:26:14;;;;;;;3.85;1.10;;;;;;;18.28;74.70;99745.06;5012729;28;20393;-82
2022/06/21 04:29:04;;;;;;;2.50;1.42;;;;;;;18.34;74.21;99752.72;4996401;28;20084;-83
2022/06/21 04:31:51;;;;;;;2.55;1.30;;;;;;;18.15;74.54;99724.47;4996266;28;20059;-83
2022/06/21 04:34:33;;;;;;;4.70;1.33;;;;;;;18.32;75.17;99754.66;4995765;28;20061;-84
2022/06/21 04:37:06;;;;;;;2.33;1.20;;;;;;;18.28;75.01;99723.53;4995412;28;20137;-82
2022/06/21 04:39:38;;;;;;;4.18;1.45;;;;;;;18.43;75.22;99742.31;4995641;28;20026;-84
2022/06/21 04:42:11;;;;;;;3.08;1.60;;;;;;;18.28;74.56;99731.59;5013009;28;20034;-83
2022/06/21 04:44:37;;;;;;;;;;;;;;;18.34;75.13;99744.63;5013430;28;20032;-83
2022/06/21 04:47:11;;;;;;;2.05;1.40;;;;;;;18.27;74.68;99720.91;4995342;28;19913;-83
2022/06/21 04:49:49;;;;;;;2.63;1.50;;;;;;;18.29;74.66;99736.00;5014172;28;20053;-83
2022/06/21 04:52:23;;;;;;;2.45;1.48;;;;;;;18.17;75.59;99715.28;5014191;28;20029;-81
2022/06/21 04:54:49;;;;;;;2.85;1.60;;;;;;;18.21;75.28;99735.66;5014562;28;20040;-83
2022/06/21 04:57:18;;;;;;;3.88;1.40;;;;;;;18.15;75.53;99746.84;5013995;28;20112;-83
2022/06/21 05:00:05;;;;;;;1.90;1.25;;;;;;;18.25;74.96;99760.56;4995843;28;20538;-82
2022/06/21 05:02:38;;;;;;;2.20;1.38;;;;;;;18.26;75.45;99755.06;5013794;28;20080;-81
2022/06/21 05:05:06;;;;;;;4.38;1.75;;;;;;;18.13;74.87;99740.72;5014032;28;20108;-82
2022/06/21 05:07:42;;;;;;;2.78;1.40;;;;;;;18.22;74.93;99761.63;4996176;28;20057;-83
2022/06/21 05:10:16;;;;;;;2.47;1.30;;;;;;;18.34;74.83;99766.19;5013802;28;20052;-84
2022/06/21 05:12:43;;;;;;;1.83;1.42;;;;;;;18.41;73.87;99752.31;4996033;28;20030;-82
2022/06/21 05:15:21;;;;;;;6.63;3.05;;;;;;;18.47;72.27;99760.00;5012956;28;20080;-82
2022/06/21 05:17:55;;;;;;;2.97;1.38;;;;;;;18.71;72.19;99779.84;5014803;28;20025;-83
2022/06/21 05:20:24;;;;;;;2.58;1.40;;;;;;;18.76;71.83;99761.53;4996506;28;20029;-83
2022/06/21 05:22:56;;;;;;;2.85;1.50;;;;;;;18.92;71.46;99756.78;4996333;28;20036;-83
2022/06/21 05:25:31;;;;;;;2.67;1.30;;;;;;;19.17;70.59;99778.34;4996848;28;20029;-83
2022/06/21 05:28:09;;;;;;;2.78;1.40;;;;;;;19.18;68.91;99774.66;4996507;28;20909;-83
2022/06/21 05:30:34;;;;;;;2.67;1.50;;;;;;;19.32;69.94;99777.28;5014380;28;20504;-83
2022/06/21 05:33:07;;;;;;;3.03;1.60;;;;;;;19.36;69.33;99751.78;5014080;28;20033;-83
2022/06/21 05:35:33;;;;;;;3.50;1.60;;;;;;;19.57;68.52;99758.34;5013263;28;20050;-82
2022/06/21 05:38:06;;;;;;;2.40;1.35;;;;;;;19.87;67.27;99779.50;4994233;28;20080;-83
2022/06/21 05:40:44;;;;;;;6.03;1.73;;;;;;;19.83;67.75;99778.88;5012172;28;20489;-82
2022/06/21 05:43:18;;;;;;;4.82;1.90;;;;;;;19.96;68.04;99792.31;4994811;28;20057;-81
2022/06/21 05:45:50;;;;;;;4.43;1.30;;;;;;;19.91;67.21;99776.44;5012286;28;20083;-81
2022/06/21 05:48:23;;;;;;;2.50;1.27;;;;;;;19.98;66.17;99788.53;5011951;28;20034;-82
2022/06/21 05:50:49;;;;;;;;;;;;;;;20.10;65.60;99794.84;5013338;28;20435;-82
2022/06/21 05:53:23;;;;;;;1.67;1.00;;;;;;;19.91;65.96;99765.66;5012960;28;20009;-81
2022/06/21 05:55:49;;;;;;;2.53;1.20;;;;;;;20.05;65.04;99778.97;4995980;28;20121;-83
2022/06/21 05:58:32;;;;;;;4.28;1.42;;;;;;;20.04;64.44;99782.66;4995616;28;20116;-83
2022/06/21 06:01:00;;;;;;;2.17;1.20;;;;;;;20.06;65.13;99780.72;4995954;28;20046;-82
2022/06/21 06:03:36;;;;;;;2.50;1.30;;;;;;;20.31;65.13;99802.19;4995854;28;20058;-83
2022/06/21 06:06:05;;;;;;;2.95;1.38;;;;;;;20.35;64.78;99784.81;5013201;28;20050;-82
2022/06/21 06:08:35;;;;;;;3.83;1.20;;;;;;;20.63;64.54;99797.91;4995239;28;20030;-83
2022/06/21 06:11:04;;;;;;;6.68;1.38;;;;;;;20.69;63.04;99775.81;4994999;28;20022;-82
2022/06/21 06:13:35;;;;;;;4.90;1.70;;;;;;;20.92;61.80;99793.81;4995083;28;20400;-82
2022/06/21 06:16:09;;;;;;;3.67;1.40;;;;;;;21.19;63.95;99784.53;4995345;28;20057;-83
2022/06/21 06:18:40;;;;;;;3.22;1.55;;;;;;;21.45;61.22;99794.16;5012576;28;20022;-84
2022/06/21 06:21:26;;;;;;;5.13;1.27;;;;;;;21.59;60.26;99783.06;5012819;28;20109;-82
2022/06/21 06:24:10;;;;;;;4.53;1.08;;;;;;;21.77;59.04;99776.16;4994886;28;20706;-82
2022/06/21 06:26:41;;;;;;;5.20;1.30;;;;;;;22.11;59.50;99788.63;4997331;28;20047;-82
2022/06/21 06:29:19;;;;;;;1.85;0.90;;;;;;;22.25;58.02;99776.63;5010566;28;20038;-83
2022/06/21 06:31:47;;;;;;;9.98;1.50;;;;;;;22.47;57.81;99799.09;5012494;28;20018;-82
2022/06/21 06:34:17;;;;;;;19.25;2.60;;;;;;;22.50;57.95;99788.00;4994741;28;20034;-83
2022/06/21 06:36:49;;;;;;;4.97;1.38;;;;;;;22.45;57.34;99797.50;5012107;28;20077;-82
2022/06/21 06:39:30;;;;;;;2.40;1.33;;;;;;;22.39;57.82;99806.16;4994380;28;20021;-82
2022/06/21 06:42:08;;;;;;;3.20;1.25;;;;;;;22.23;57.57;99790.31;5012208;28;20057;-83
2022/06/21 06:44:56;;;;;;;3.80;1.20;;;;;;;22.23;58.34;99803.00;5012051;28;20032;-82
2022/06/21 06:47:36;;;;;;;2.15;1.15;;;;;;;22.03;57.48;99793.81;5012327;28;20022;-83
2022/06/21 06:50:12;;;;;;;1.98;1.25;;;;;;;21.81;59.56;99753.28;4994850;28;20058;-83
2022/06/21 06:52:49;;;;;;;2.42;1.27;;;;;;;21.83;59.39;99760.28;4994777;28;20057;-83
2022/06/21 06:55:34;;;;;;;3.97;1.15;;;;;;;21.60;60.20;99719.78;4994869;28;20373;-81
2022/06/21 06:58:02;;;;;;;1.58;0.93;;;;;;;21.80;61.08;99713.63;4994726;28;20032;-82
2022/06/21 07:00:42;;;;;;;3.08;1.58;;;;;;;21.70;58.71;99680.16;5012548;28;20029;-82
2022/06/21 07:03:23;;;;;;;3.13;1.20;;;;;;;21.69;59.61;99675.72;5012527;28;20036;-82
2022/06/21 07:05:51;;;;;;;3.63;1.77;;;;;;;21.59;59.52;99647.69;4994793;28;20100;-82
2022/06/21 07:08:26;;;;;;;2.28;1.00;;;;;;;21.29;60.65;99623.16;5012566;28;20084;-82
2022/06/21 07:10:54;;;;;;;2.72;1.20;;;;;;;20.71;60.97;99625.19;4995140;28;20026;-83
2022/06/21 07:13:20;;;;;;;3.90;1.92;;;;;;;20.93;61.60;99733.34;5012396;28;20060;-83
2022/06/21 07:15:48;;;;;;;3.00;1.25;;;;;;;21.00;61.69;99770.75;4994384;28;20446;-83
2022/06/21 07:18:26;;;;;;;2.53;1.13;;;;;;;21.28;62.58;99794.63;4993951;28;20026;-84
2022/06/21 07:20:52;;;;;;;3.00;1.20;;;;;;;21.48;60.86;99796.59;5012980;28;20026;-83
2022/06/21 07:23:20;;;;;;;3.88;1.38;;;;;;;21.79;60.81;99794.03;5018646;28;20033;-84
2022/06/21 07:25:54;;;;;;;2.33;1.52;;;;;;;22.05;59.64;99786.44;5017616;28;20109;-82
2022/06/21 07:28:32;;;;;;;6.30;1.90;;;;;;;22.21;59.99;99786.03;4999305;28;20895;-82
2022/06/21 07:31:04;;;;;;;4.05;1.25;;;;;;;22.13;60.07;99746.88;5017132;28;20045;-82
2022/06/21 07:33:35;;;;;;;2.65;1.73;;;;;;;22.23;60.40;99752.38;5017339;28;20037;-84
2022/06/21 07:36:08;;;;;;;2.70;1.33;;;;;;;22.23;61.26;99722.56;4999479;28;20029;-83
2022/06/21 07:38:56;;;;;;;2.77;1.20;;;;;;;22.33;60.18;99731.66;4998596;28;20034;-82
2022/06/21 07:41:43;;;;;;;2.50;1.20;;;;;;;22.33;60.57;99784.97;5017648;28;20352;-82
2022/06/21 07:44:25;;;;;;;3.60;1.35;;;;;;;22.54;60.74;99767.78;4980613;28;20033;-83
2022/06/21 07:46:58;;;;;;;1.98;1.00;;;;;;;23.09;59.60;99759.31;4998486;28;20109;-84
2022/06/21 07:49:35;;;;;;;3.20;1.20;;;;;;;23.27;56.97;99752.28;4998395;28;20034;-84
2022/06/21 07:52:08;;;;;;;1.60;1.10;;;;;;;23.64;55.11;99746.28;4998347;28;20022;-83
2022/06/21 07:54:35;;;;;;;;;;;;;;;23.79;54.87;99753.88;4998743;28;20370;-82
2022/06/21 07:57:07;;;;;;;2.35;1.30;;;;;;;23.93;53.66;99742.63;4980412;28;19958;-82
2022/06/21 07:59:39;;;;;;;3.63;1.10;;;;;;;24.35;53.40;99724.22;4980328;28;20057;-85
2022/06/21 08:08:31;;;;;;;3.40;1.10;;;;;;;24.80;50.11;99713.59;4996673;28;20033;-80
2022/06/21 08:10:56;;;;;;;2.83;0.95;;;;;;;24.79;49.51;99739.97;4995422;28;20025;-82
2022/06/21 08:13:21;;;;;;;2.38;0.90;;;;;;;24.34;51.25;99727.94;4998347;28;20045;-83
2022/06/21 08:15:56;;;;;;;1.40;0.93;;;;;;;24.38;52.04;99734.81;4998381;28;20036;-81
2022/06/21 08:18:34;;;;;;;1.83;1.17;;;;;;;24.47;52.98;99740.25;5016141;28;20022;-81
2022/06/21 08:21:08;;;;;;;3.70;1.38;;;;;;;24.41;51.04;99734.53;5015590;28;20033;-81
2022/06/21 08:23:57;;;;;;;2.70;0.98;;;;;;;24.27;52.14;99732.22;5016089;28;20033;-81
2022/06/21 08:26:32;;;;;;;3.30;1.20;;;;;;;24.52;52.77;99712.63;4996948;28;20420;-81
2022/06/21 08:29:09;;;;;;;3.70;1.30;;;;;;;24.61;50.63;99699.00;4978935;28;20121;-82
2022/06/21 08:31:39;;;;;;;1.95;1.20;;;;;;;25.18;50.79;99727.09;4997536;28;20073;-82
2022/06/21 08:34:10;;;;;;;2.50;1.48;;;;;;;25.69;48.08;99727.44;4976839;28;20030;-83
2022/06/21 08:36:45;;;;;;;2.70;1.20;;;;;;;26.42;48.82;99723.66;4994791;28;20440;-82
2022/06/21 08:39:22;;;;;;;4.90;1.30;;;;;;;27.15;45.77;99712.25;4975828;28;20053;-84
2022/06/21 08:42:25;;;;;;;4.43;1.73;;;;;;;27.30;43.60;99721.59;4977361;28;20034;-82
2022/06/21 08:45:40;;;;;;;2.80;1.13;;;;;;;27.42;46.48;99717.56;5012794;28;20476;-83
2022/06/21 08:49:00;;;;;;;3.10;1.42;;;;;;;27.94;43.67;99732.81;4995919;28;20025;-84
2022/06/21 08:51:54;;;;;;;4.68;1.50;;;;;;;27.70;42.97;99719.03;4952146;28;20095;-82
2022/06/21 08:54:46;;;;;;;3.25;1.20;;;;;;;28.15;42.90;99692.19;4952001;29;20457;-84
2022/06/21 08:57:32;;;;;;;3.00;1.35;;;;;;;28.59;43.68;99700.09;4952684;29;20035;-83
2022/06/21 09:00:09;;;;;;;2.00;1.20;;;;;;;28.88;43.26;99716.84;4952480;29;20451;-82
2022/06/21 09:03:09;;;;;;;4.22;1.40;;;;;;;28.83;44.39;99714.63;4937219;29;20067;-83
2022/06/21 09:05:47;;;;;;;2.95;1.40;;;;;;;28.66;43.37;99717.53;4952838;29;20079;-84
2022/06/21 09:09:00;;;;;;;4.05;1.60;;;;;;;28.92;43.94;99723.69;4936500;29;20031;-83
2022/06/21 09:11:30;;;;;;;4.35;1.30;;;;;;;29.24;42.53;99709.97;4909120;29;20039;-83
2022/06/21 09:14:29;;;;;;;6.07;3.22;;;;;;;29.32;43.17;99715.41;4936605;29;20122;-83
2022/06/21 09:17:16;;;;;;;3.10;1.20;;;;;;;29.59;42.81;99710.31;4925002;29;20042;-83
2022/06/21 09:19:47;;;;;;;3.35;1.35;;;;;;;30.06;42.03;99725.88;4950775;29;20051;-82
2022/06/21 09:22:44;;;;;;;2.05;1.13;;;;;;;30.18;40.85;99706.06;4951684;28;20118;-82
2022/06/21 09:25:17;;;;;;;3.40;1.40;;;;;;;30.08;39.26;99727.44;4977365;28;20045;-84
2022/06/21 09:27:51;;;;;;;3.40;1.20;;;;;;;29.97;40.24;99727.81;5013568;28;20076;-82
2022/06/21 09:30:26;;;;;;;5.95;1.67;;;;;;;30.14;41.12;99723.09;4996748;28;20740;-81
2022/06/21 09:33:12;;;;;;;3.28;1.38;;;;;;;29.95;39.96;99707.94;4996419;28;20022;-83
2022/06/21 09:35:53;;;;;;;3.95;1.30;;;;;;;30.17;40.71;99711.75;4995587;28;20044;-84
2022/06/21 09:38:22;;;;;;;4.38;1.55;;;;;;;30.53;40.90;99713.75;4995884;28;20491;-82
2022/06/21 09:41:07;;;;;;;3.90;1.15;;;;;;;30.91;40.04;99711.03;5012173;28;20088;-81
2022/06/21 09:44:05;;;;;;;4.10;1.50;;;;;;;30.95;38.80;99702.25;4993750;28;20049;-84
2022/06/21 09:46:53;;;;;;;2.92;1.05;;;;;;;31.09;39.50;99695.06;5008713;28;20550;-83
2022/06/21 09:49:40;;;;;;;1.20;1.02;;;;;;;31.49;39.75;99689.09;5011620;28;20041;-81
2022/06/21 09:52:19;;;;;;;4.53;2.13;;;;;;;31.92;39.61;99683.56;5011066;28;20083;-81
2022/06/21 09:55:01;;;;;;;3.13;1.20;;;;;;;31.59;38.35;99689.66;5010998;28;20048;-81
2022/06/21 09:57:40;;;;;;;4.07;1.47;;;;;;;31.49;38.15;99687.22;4994335;28;20030;-85
2022/06/21 10:00:13;;;;;;;2.13;1.30;;;;;;;31.08;39.54;99668.59;5012398;28;20034;-84
2022/06/21 10:03:17;;;;;;;5.00;1.48;;;;;;;31.47;38.86;99675.53;4994968;28;20382;-83
2022/06/21 10:06:07;;;;;;;4.80;1.50;;;;;;;31.78;38.29;99678.06;4994984;28;20048;-85
2022/06/21 10:08:33;;;;;;;4.60;1.60;;;;;;;32.13;38.94;99678.06;5011993;28;20192;-85
2022/06/21 10:11:28;;;;;;;2.38;1.30;;;;;;;32.29;37.90;99674.19;5011069;28;20029;-84
2022/06/21 10:14:04;;;;;;;5.25;1.70;;;;;;;32.61;39.24;99668.19;5011082;28;20493;-83
2022/06/21 10:17:14;;;;;;;4.45;1.50;;;;;;;32.38;37.38;99658.41;5010037;28;20030;-84
2022/06/21 10:20:01;;;;;;;4.35;1.58;;;;;;;32.34;39.72;99662.63;5006993;28;20037;-85
2022/06/21 10:22:36;;;;;;;4.97;1.80;;;;;;;32.31;38.08;99652.00;5010896;28;20567;-84
2022/06/21 10:25:18;;;;;;;3.97;1.90;;;;;;;32.51;38.64;99656.66;4994686;28;20480;-83
2022/06/21 10:28:08;;;;;;;5.05;2.00;;;;;;;32.59;37.12;99666.66;5025764;28;20021;-85
2022/06/21 10:30:59;;;;;;;2.95;1.65;;;;;;;31.81;38.08;99674.94;5014141;28;20084;-84
2022/06/21 10:33:52;;;;;;;4.15;1.70;;;;;;;31.69;39.81;99673.72;5012343;28;20092;-83
2022/06/21 10:36:36;;;;;;;3.92;1.98;;;;;;;32.49;38.47;99678.03;4994553;28;20448;-84
2022/06/21 10:39:50;;;;;;;3.67;1.90;;;;;;;32.56;39.45;99653.31;5012051;28;20088;-83
2022/06/21 10:42:46;;;;;;;6.63;2.63;;;;;;;32.90;38.33;99679.06;4964978;28;20070;-83
2022/06/21 10:45:33;;;;;;;4.88;2.00;;;;;;;33.13;36.08;99665.84;5012232;28;20029;-85
2022/06/21 10:48:17;;;;;;;4.38;1.80;;;;;;;33.56;37.97;99665.72;4994692;28;20495;-85
2022/06/21 10:51:01;;;;;;;2.80;1.48;;;;;;;33.86;35.60;99662.44;5012169;28;20022;-85
2022/06/21 10:53:48;;;;;;;3.13;1.80;;;;;;;33.76;36.55;99664.72;5012029;28;20061;-84
2022/06/21 11:01:17;;;;;;;3.88;2.00;;;;;;;32.91;39.92;99642.19;5011836;28;20057;-85
2022/06/21 11:02:56;;;;;;;4.95;2.17;;;;;;;32.47;41.31;99625.03;5010755;28;20484;-84
2022/06/21 11:05:56;;;;;;;5.40;1.95;;;;;;;32.25;38.54;99626.09;4992481;28;20417;-84
2022/06/21 11:08:58;;;;;;;4.18;1.92;;;;;;;32.31;41.09;99614.28;4992955;28;20029;-84
2022/06/21 11:11:42;;;;;;;8.10;2.33;;;;;;;32.14;39.16;99604.63;5010172;28;20038;-84
2022/06/21 11:14:33;;;;;;;4.28;1.90;;;;;;;31.69;40.48;99591.19;4983973;28;20045;-84
2022/06/21 11:17:14;;;;;;;4.55;2.35;;;;;;;31.19;41.46;99589.28;5011837;28;20029;-84
2022/06/21 11:19:48;;;;;;;6.93;2.47;;;;;;;31.25;41.81;99593.16;5011848;28;20083;-82
2022/06/21 11:22:25;;;;;;;4.60;1.88;;;;;;;31.70;41.34;99595.63;5011644;28;20054;-84
2022/06/21 11:25:05;;;;;;;2.88;2.08;;;;;;;32.49;41.79;99598.16;5011859;28;20028;-84
2022/06/21 11:27:38;;;;;;;3.50;2.00;;;;;;;33.02;42.10;99592.00;5022721;28;20025;-85
2022/06/21 11:30:09;;;;;;;;;;;;;;;33.43;40.17;99597.53;5031494;28;20021;-84
2022/06/21 11:33:00;;;;;;;3.63;2.10;;;;;;;33.55;40.80;99603.31;5031244;28;20284;-85
2022/06/21 11:35:50;;;;;;;4.50;2.30;;;;;;;34.04;37.63;99590.09;5009669;28;20040;-85
2022/06/21 11:38:33;;;;;;;3.33;2.22;;;;;;;34.35;35.91;99576.53;5030222;28;20021;-87
2022/06/21 11:42:28;;;;;;;4.82;2.55;;;;;;;33.50;36.97;99581.00;5012161;28;20033;-85
2022/06/21 11:44:40;;;;;;;;;;;;;;;33.83;37.72;99590.22;4979248;28;20038;-82
2022/06/21 11:47:23;;;;;;;6.75;2.55;;;;;;;34.03;37.84;99569.94;4992557;28;19980;-83
2022/06/21 11:50:02;;;;;;;4.35;2.38;;;;;;;34.34;36.47;99559.09;4974578;28;20505;-84
2022/06/21 11:52:54;;;;;;;4.32;2.20;;;;;;;34.16;37.43;99536.81;4992597;28;20034;-82
2022/06/21 11:55:39;;;;;;;6.25;2.70;;;;;;;34.70;36.18;99544.84;4974469;28;20634;-85
2022/06/21 11:58:23;;;;;;;4.93;2.85;;;;;;;35.16;36.63;99540.06;4974420;28;20035;-85
2022/06/21 12:01:13;;;;;;;5.63;2.30;;;;;;;34.94;36.32;99522.09;4973943;28;20037;-83
2022/06/21 12:04:10;;;;;;;8.38;2.40;;;;;;;35.16;35.37;99515.16;4973107;28;20030;-85
2022/06/21 12:06:54;;;;;;;5.63;2.47;;;;;;;35.05;35.07;99520.53;5005176;28;20124;-82
2022/06/21 12:09:56;;;;;;;5.88;2.30;;;;;;;34.97;36.95;99502.28;4995499;28;20025;-84
2022/06/21 12:12:43;;;;;;;6.40;2.72;;;;;;;34.83;37.33;99478.47;5009456;28;20048;-81
2022/06/21 12:15:39;;;;;;;5.30;2.30;;;;;;;34.71;37.49;99477.47;5014772;28;20040;-83
2022/06/21 12:18:12;;;;;;;3.80;1.90;;;;;;;35.15;38.73;99466.47;4997703;28;20026;-81
2022/06/21 12:20:44;;;;;;;5.10;2.30;;;;;;;35.22;37.11;99458.13;4997701;28;20476;-81
2022/06/21 12:23:27;;;;;;;8.40;2.70;;;;;;;35.09;38.04;99456.25;4997756;28;20029;-82
2022/06/21 12:25:53;;;;;;;4.63;2.28;;;;;;;34.74;38.39;99463.22;4997419;28;20029;-81
2022/06/21 12:28:30;;;;;;;4.03;2.42;;;;;;;34.67;37.75;99462.38;5032363;28;20087;-82
2022/06/21 12:30:59;;;;;;;4.10;2.75;;;;;;;34.60;36.68;99447.72;5020605;28;20032;-82
2022/06/21 12:33:33;;;;;;;4.53;2.75;;;;;;;34.36;37.79;99462.22;4999266;28;20030;-82
2022/06/21 12:36:01;;;;;;;4.88;2.45;;;;;;;34.40;38.78;99471.75;5013145;28;20691;-82
2022/06/21 12:38:37;;;;;;;5.57;2.67;;;;;;;34.30;38.11;99493.47;5015043;28;20077;-82